SVW92GU EDDF-EDDB
Flight info
| Callsign | SVW92GU |
|---|---|
| Flight time | 0h 41m |
| Altitude | 31000 |
| Route | TOBAK8M/25C TOBAK N858 SWALM T201 TAMEB T278 KLF KLF1R |
| Aircraft | A319/M-SDE3FGHIRWY/LB1 |
Departure
| Time | 2026-05-06 09:38 |
|---|---|
| Airport | Frankfurt Main Airport (EDDF) |
Arrival
| Time | 2026-05-06 10:19 |
|---|---|
| Airport | Berlin Brandenburg Airport (EDDB) |
| Time | Latitude | Longitude | Altitude | Speed | Heading |
|---|---|---|---|---|---|
| 2026-05-06 09:10 | 50.02248 | 8.53080 | 335 ft | 0 kts | 339° |
| 2026-05-06 09:32 | 50.02251 | 8.53083 | 335 ft | 0 kts | 14° |
| 2026-05-06 09:32 | 50.02251 | 8.53091 | 332 ft | 1 kts | 69° |
| 2026-05-06 09:32 | 50.02247 | 8.53096 | 332 ft | 1 kts | 123° |
| 2026-05-06 09:33 | 50.02233 | 8.53098 | 332 ft | 5 kts | 168° |
| 2026-05-06 09:33 | 50.02175 | 8.53083 | 334 ft | 11 kts | 208° |
| 2026-05-06 09:33 | 50.02150 | 8.52973 | 336 ft | 12 kts | 265° |
| 2026-05-06 09:33 | 50.02156 | 8.52840 | 332 ft | 12 kts | 314° |
| 2026-05-06 09:34 | 50.02248 | 8.52830 | 336 ft | 14 kts | 359° |
| 2026-05-06 09:34 | 50.02321 | 8.52816 | 334 ft | 9 kts | 319° |
| 2026-05-06 09:34 | 50.02324 | 8.52767 | 333 ft | 0 kts | 246° |
| 2026-05-06 09:35 | 50.02315 | 8.52737 | 333 ft | 6 kts | 246° |
| 2026-05-06 09:35 | 50.02299 | 8.52659 | 335 ft | 9 kts | 259° |
| 2026-05-06 09:35 | 50.02263 | 8.52606 | 333 ft | 3 kts | 182° |
| 2026-05-06 09:37 | 50.02229 | 8.52606 | 335 ft | 26 kts | 179° |
| 2026-05-06 09:37 | 50.01676 | 8.52607 | 335 ft | 125 kts | 180° |
| 2026-05-06 09:37 | 50.00670 | 8.52614 | 867 ft | 150 kts | 182° |
| 2026-05-06 09:38 | 49.99603 | 8.52610 | 1817 ft | 158 kts | 183° |
| 2026-05-06 09:38 | 49.98446 | 8.52481 | 2494 ft | 180 kts | 195° |
| 2026-05-06 09:38 | 49.97262 | 8.51596 | 3113 ft | 204 kts | 220° |
| 2026-05-06 09:38 | 49.96187 | 8.49994 | 4085 ft | 216 kts | 225° |
| 2026-05-06 09:39 | 49.95112 | 8.48370 | 5277 ft | 220 kts | 225° |
| 2026-05-06 09:39 | 49.93999 | 8.46696 | 6461 ft | 225 kts | 225° |
| 2026-05-06 09:39 | 49.92859 | 8.44983 | 7577 ft | 235 kts | 225° |
| 2026-05-06 09:39 | 49.91621 | 8.43127 | 8402 ft | 258 kts | 224° |
| 2026-05-06 09:40 | 49.90300 | 8.41152 | 9522 ft | 267 kts | 224° |
| 2026-05-06 09:40 | 49.88936 | 8.39103 | 10388 ft | 284 kts | 225° |
| 2026-05-06 09:40 | 49.87574 | 8.33007 | 11581 ft | 335 kts | 277° |
| 2026-05-06 09:41 | 49.88458 | 8.29603 | 12528 ft | 348 kts | 298° |
| 2026-05-06 09:41 | 49.89743 | 8.26382 | 13568 ft | 354 kts | 300° |
| 2026-05-06 09:41 | 49.91220 | 8.23290 | 14436 ft | 364 kts | 312° |
| 2026-05-06 09:41 | 49.93280 | 8.20939 | 15329 ft | 375 kts | 331° |
| 2026-05-06 09:42 | 49.95795 | 8.19728 | 16225 ft | 385 kts | 351° |
| 2026-05-06 09:42 | 49.98491 | 8.19941 | 17102 ft | 394 kts | 13° |
| 2026-05-06 09:42 | 50.01000 | 8.21650 | 17982 ft | 399 kts | 35° |
| 2026-05-06 09:42 | 50.02978 | 8.24680 | 18755 ft | 402 kts | 57° |
| 2026-05-06 09:43 | 50.04333 | 8.28500 | 19528 ft | 405 kts | 65° |
| 2026-05-06 09:43 | 50.05604 | 8.32435 | 20306 ft | 410 kts | 65° |
| 2026-05-06 09:43 | 50.06881 | 8.36436 | 21068 ft | 415 kts | 65° |
| 2026-05-06 09:43 | 50.08177 | 8.40488 | 21808 ft | 421 kts | 65° |
| 2026-05-06 09:44 | 50.09492 | 8.44591 | 22496 ft | 426 kts | 65° |
| 2026-05-06 09:44 | 50.10820 | 8.48741 | 23199 ft | 431 kts | 65° |
| 2026-05-06 09:44 | 50.12157 | 8.52911 | 23772 ft | 437 kts | 65° |
| 2026-05-06 09:44 | 50.13524 | 8.57165 | 24321 ft | 442 kts | 65° |
| 2026-05-06 09:45 | 50.14918 | 8.61465 | 24874 ft | 447 kts | 64° |
| 2026-05-06 09:45 | 50.16332 | 8.65816 | 25414 ft | 452 kts | 65° |
| 2026-05-06 09:45 | 50.17761 | 8.70215 | 25943 ft | 456 kts | 65° |
| 2026-05-06 09:45 | 50.19197 | 8.74656 | 26502 ft | 461 kts | 65° |
| 2026-05-06 09:46 | 50.20644 | 8.79140 | 27015 ft | 465 kts | 65° |
| 2026-05-06 09:46 | 50.22105 | 8.83667 | 27552 ft | 469 kts | 65° |
| 2026-05-06 09:46 | 50.23578 | 8.88246 | 28081 ft | 474 kts | 65° |
| 2026-05-06 09:46 | 50.25040 | 8.92811 | 28564 ft | 478 kts | 65° |
| 2026-05-06 09:47 | 50.26529 | 8.97481 | 29058 ft | 482 kts | 65° |
| 2026-05-06 09:47 | 50.28029 | 9.02198 | 29546 ft | 486 kts | 66° |
| 2026-05-06 09:47 | 50.29541 | 9.06953 | 29987 ft | 490 kts | 66° |
| 2026-05-06 09:47 | 50.31065 | 9.11748 | 30382 ft | 494 kts | 65° |
| 2026-05-06 09:48 | 50.32596 | 9.16565 | 30689 ft | 495 kts | 65° |
| 2026-05-06 09:48 | 50.34128 | 9.21384 | 30759 ft | 489 kts | 65° |
| 2026-05-06 09:48 | 50.37127 | 9.30842 | 30772 ft | 484 kts | 65° |
| 2026-05-06 09:49 | 50.40098 | 9.40317 | 30769 ft | 484 kts | 66° |
| 2026-05-06 09:49 | 50.43061 | 9.49797 | 30773 ft | 484 kts | 66° |
| 2026-05-06 09:50 | 50.46022 | 9.59283 | 30769 ft | 484 kts | 66° |
| 2026-05-06 09:50 | 50.48984 | 9.68786 | 30781 ft | 484 kts | 65° |
| 2026-05-06 09:51 | 50.51927 | 9.78283 | 30780 ft | 483 kts | 66° |
| 2026-05-06 09:51 | 50.54837 | 9.87722 | 30747 ft | 483 kts | 66° |
| 2026-05-06 09:52 | 50.57763 | 9.97256 | 30739 ft | 484 kts | 66° |
| 2026-05-06 09:52 | 50.60683 | 10.06792 | 30743 ft | 484 kts | 66° |
| 2026-05-06 09:53 | 50.63598 | 10.16357 | 30747 ft | 484 kts | 66° |
| 2026-05-06 09:53 | 50.66507 | 10.25938 | 30749 ft | 485 kts | 66° |
| 2026-05-06 09:54 | 50.69433 | 10.35514 | 30723 ft | 485 kts | 66° |
| 2026-05-06 09:54 | 50.72362 | 10.45108 | 30733 ft | 486 kts | 66° |
| 2026-05-06 09:55 | 50.75286 | 10.54734 | 30739 ft | 487 kts | 66° |
| 2026-05-06 09:55 | 50.78194 | 10.64384 | 30748 ft | 487 kts | 66° |
| 2026-05-06 09:56 | 50.81106 | 10.74056 | 30756 ft | 487 kts | 66° |
| 2026-05-06 09:56 | 50.84225 | 10.83586 | 30779 ft | 488 kts | 63° |
| 2026-05-06 09:57 | 50.87497 | 10.92993 | 30758 ft | 488 kts | 62° |
| 2026-05-06 09:57 | 50.90726 | 11.02382 | 30758 ft | 488 kts | 63° |
| 2026-05-06 09:58 | 50.93908 | 11.11900 | 30759 ft | 489 kts | 64° |
| 2026-05-06 09:58 | 50.97071 | 11.21458 | 30757 ft | 489 kts | 64° |
| 2026-05-06 09:59 | 51.00236 | 11.31027 | 30749 ft | 490 kts | 64° |
| 2026-05-06 09:59 | 51.03406 | 11.40601 | 30760 ft | 489 kts | 63° |
| 2026-05-06 10:00 | 51.06567 | 11.50174 | 30745 ft | 490 kts | 63° |
| 2026-05-06 10:00 | 51.09952 | 11.59585 | 30747 ft | 491 kts | 52° |
| 2026-05-06 10:01 | 51.12290 | 11.63514 | 30748 ft | 489 kts | 37° |
| 2026-05-06 10:01 | 51.15216 | 11.66180 | 30754 ft | 482 kts | 17° |
| 2026-05-06 10:01 | 51.21451 | 11.70088 | 30755 ft | 485 kts | 24° |
| 2026-05-06 10:02 | 51.27207 | 11.75765 | 30789 ft | 487 kts | 33° |
| 2026-05-06 10:02 | 51.32758 | 11.81934 | 30802 ft | 485 kts | 32° |
| 2026-05-06 10:03 | 51.38395 | 11.87726 | 30794 ft | 483 kts | 29° |
| 2026-05-06 10:03 | 51.41265 | 11.90511 | 30428 ft | 480 kts | 28° |
| 2026-05-06 10:03 | 51.44131 | 11.93251 | 29648 ft | 480 kts | 29° |
| 2026-05-06 10:04 | 51.46984 | 11.95976 | 29072 ft | 473 kts | 31° |
| 2026-05-06 10:04 | 51.49794 | 11.98685 | 28510 ft | 471 kts | 31° |
| 2026-05-06 10:04 | 51.52592 | 12.01416 | 27958 ft | 471 kts | 31° |
| 2026-05-06 10:04 | 51.55389 | 12.04172 | 27414 ft | 472 kts | 31° |
| 2026-05-06 10:05 | 51.58192 | 12.06951 | 26754 ft | 474 kts | 31° |
| 2026-05-06 10:05 | 51.60995 | 12.09749 | 25976 ft | 473 kts | 31° |
| 2026-05-06 10:05 | 51.63776 | 12.12537 | 25225 ft | 469 kts | 32° |
| 2026-05-06 10:05 | 51.66532 | 12.15309 | 24493 ft | 465 kts | 32° |
| 2026-05-06 10:06 | 51.69256 | 12.18052 | 23585 ft | 460 kts | 32° |
| 2026-05-06 10:06 | 51.71969 | 12.20786 | 22527 ft | 459 kts | 32° |
| 2026-05-06 10:06 | 51.74666 | 12.23510 | 21459 ft | 457 kts | 31° |
| 2026-05-06 10:06 | 51.77360 | 12.26234 | 20426 ft | 456 kts | 31° |
| 2026-05-06 10:07 | 51.80010 | 12.28905 | 19445 ft | 454 kts | 31° |
| 2026-05-06 10:07 | 51.82712 | 12.31634 | 18466 ft | 452 kts | 30° |
| 2026-05-06 10:07 | 51.85371 | 12.34327 | 17437 ft | 450 kts | 30° |
| 2026-05-06 10:07 | 51.87979 | 12.36977 | 16401 ft | 447 kts | 30° |
| 2026-05-06 10:08 | 51.90603 | 12.39648 | 15475 ft | 442 kts | 30° |
| 2026-05-06 10:08 | 51.93148 | 12.42242 | 14587 ft | 428 kts | 30° |
| 2026-05-06 10:08 | 51.95670 | 12.44817 | 14063 ft | 418 kts | 30° |
| 2026-05-06 10:08 | 51.98083 | 12.47281 | 13269 ft | 414 kts | 30° |
| 2026-05-06 10:09 | 52.00513 | 12.49762 | 12465 ft | 409 kts | 30° |
| 2026-05-06 10:09 | 52.02906 | 12.52210 | 11660 ft | 403 kts | 30° |
| 2026-05-06 10:09 | 52.05261 | 12.54616 | 10849 ft | 397 kts | 30° |
| 2026-05-06 10:09 | 52.07562 | 12.56976 | 10421 ft | 381 kts | 30° |
| 2026-05-06 10:10 | 52.09733 | 12.59217 | 10324 ft | 358 kts | 29° |
| 2026-05-06 10:10 | 52.11777 | 12.61326 | 10203 ft | 339 kts | 29° |
| 2026-05-06 10:10 | 52.13596 | 12.63627 | 10081 ft | 326 kts | 42° |
| 2026-05-06 10:10 | 52.14971 | 12.66479 | 9888 ft | 318 kts | 57° |
| 2026-05-06 10:11 | 52.15892 | 12.69718 | 9657 ft | 313 kts | 67° |
| 2026-05-06 10:11 | 52.16693 | 12.73009 | 9526 ft | 312 kts | 67° |
| 2026-05-06 10:11 | 52.17497 | 12.76303 | 9155 ft | 314 kts | 67° |
| 2026-05-06 10:11 | 52.18300 | 12.79585 | 8718 ft | 310 kts | 67° |
| 2026-05-06 10:12 | 52.19096 | 12.82822 | 8291 ft | 305 kts | 67° |
| 2026-05-06 10:12 | 52.19882 | 12.86016 | 7827 ft | 302 kts | 67° |
| 2026-05-06 10:12 | 52.20653 | 12.89159 | 7157 ft | 296 kts | 67° |
| 2026-05-06 10:12 | 52.21404 | 12.92247 | 6501 ft | 290 kts | 68° |
| 2026-05-06 10:13 | 52.22120 | 12.95289 | 6071 ft | 286 kts | 68° |
| 2026-05-06 10:13 | 52.22845 | 12.98296 | 5569 ft | 284 kts | 67° |
| 2026-05-06 10:13 | 52.23572 | 13.01272 | 5141 ft | 280 kts | 66° |
| 2026-05-06 10:13 | 52.24281 | 13.04188 | 4902 ft | 271 kts | 66° |
| 2026-05-06 10:14 | 52.24975 | 13.07047 | 4645 ft | 273 kts | 66° |
| 2026-05-06 10:14 | 52.25675 | 13.09929 | 4382 ft | 273 kts | 66° |
| 2026-05-06 10:14 | 52.26371 | 13.12804 | 4129 ft | 272 kts | 66° |
| 2026-05-06 10:14 | 52.27063 | 13.15670 | 3876 ft | 270 kts | 66° |
| 2026-05-06 10:15 | 52.27748 | 13.18506 | 3633 ft | 265 kts | 66° |
| 2026-05-06 10:15 | 52.28409 | 13.21247 | 3461 ft | 261 kts | 66° |
| 2026-05-06 10:15 | 52.29058 | 13.23946 | 3159 ft | 250 kts | 66° |
| 2026-05-06 10:15 | 52.29685 | 13.26550 | 2826 ft | 243 kts | 67° |
| 2026-05-06 10:16 | 52.30295 | 13.29087 | 2501 ft | 237 kts | 67° |
| 2026-05-06 10:16 | 52.30888 | 13.31557 | 2183 ft | 229 kts | 66° |
| 2026-05-06 10:16 | 52.31443 | 13.33878 | 1881 ft | 211 kts | 66° |
| 2026-05-06 10:16 | 52.31958 | 13.36030 | 1619 ft | 195 kts | 66° |
| 2026-05-06 10:17 | 52.32425 | 13.37981 | 1359 ft | 177 kts | 66° |
| 2026-05-06 10:17 | 52.32854 | 13.39776 | 1117 ft | 160 kts | 66° |
| 2026-05-06 10:17 | 52.33242 | 13.41409 | 879 ft | 148 kts | 65° |
| 2026-05-06 10:17 | 52.33607 | 13.42912 | 690 ft | 138 kts | 66° |
| 2026-05-06 10:18 | 52.33943 | 13.44329 | 506 ft | 129 kts | 64° |
| 2026-05-06 10:18 | 52.34260 | 13.45661 | 361 ft | 123 kts | 63° |
| 2026-05-06 10:18 | 52.34566 | 13.46947 | 210 ft | 121 kts | 64° |
| 2026-05-06 10:18 | 52.34853 | 13.48138 | 154 ft | 98 kts | 69° |
| 2026-05-06 10:19 | 52.35035 | 13.48920 | 155 ft | 49 kts | 68° |
| 2026-05-06 10:19 | 52.35176 | 13.49286 | 155 ft | 35 kts | 43° |
| 2026-05-06 10:19 | 52.35289 | 13.49438 | 155 ft | 12 kts | 38° |
| 2026-05-06 10:19 | 52.35310 | 13.49465 | 155 ft | 0 kts | 39° |
| 2026-05-06 10:21 | 52.35316 | 13.49474 | 155 ft | 4 kts | 39° |
| 2026-05-06 10:21 | 52.35355 | 13.49525 | 155 ft | 9 kts | 39° |
| 2026-05-06 10:21 | 52.35415 | 13.49603 | 155 ft | 13 kts | 39° |
| 2026-05-06 10:21 | 52.35465 | 13.49736 | 155 ft | 15 kts | 69° |
| 2026-05-06 10:22 | 52.35508 | 13.49915 | 155 ft | 18 kts | 69° |
| 2026-05-06 10:22 | 52.35557 | 13.50120 | 155 ft | 17 kts | 69° |
| 2026-05-06 10:22 | 52.35657 | 13.50159 | 155 ft | 18 kts | 338° |
| 2026-05-06 10:22 | 52.35783 | 13.50078 | 155 ft | 21 kts | 338° |
| 2026-05-06 10:23 | 52.35924 | 13.49988 | 155 ft | 23 kts | 339° |
| 2026-05-06 10:23 | 52.36080 | 13.49891 | 155 ft | 25 kts | 339° |
| 2026-05-06 10:23 | 52.36247 | 13.49785 | 155 ft | 27 kts | 339° |
| 2026-05-06 10:23 | 52.36422 | 13.49674 | 155 ft | 28 kts | 339° |
| 2026-05-06 10:24 | 52.36608 | 13.49558 | 155 ft | 24 kts | 339° |
| 2026-05-06 10:24 | 52.36698 | 13.49604 | 155 ft | 17 kts | 66° |
| 2026-05-06 10:24 | 52.36744 | 13.49794 | 155 ft | 19 kts | 68° |
| 2026-05-06 10:24 | 52.36795 | 13.50013 | 155 ft | 22 kts | 69° |
| 2026-05-06 10:25 | 52.36853 | 13.50258 | 155 ft | 24 kts | 69° |
| 2026-05-06 10:25 | 52.36916 | 13.50525 | 155 ft | 26 kts | 69° |
| 2026-05-06 10:25 | 52.36985 | 13.50813 | 155 ft | 28 kts | 69° |
| 2026-05-06 10:25 | 52.37058 | 13.51119 | 155 ft | 30 kts | 69° |
| 2026-05-06 10:26 | 52.37132 | 13.51429 | 157 ft | 29 kts | 69° |
| 2026-05-06 10:26 | 52.37203 | 13.51731 | 155 ft | 25 kts | 69° |
| 2026-05-06 10:26 | 52.37260 | 13.51969 | 155 ft | 18 kts | 69° |
| 2026-05-06 10:26 | 52.37235 | 13.52107 | 155 ft | 11 kts | 163° |
| 2026-05-06 10:27 | 52.37175 | 13.52155 | 155 ft | 9 kts | 185° |
| 2026-05-06 10:27 | 52.37146 | 13.52071 | 155 ft | 9 kts | 248° |
| 2026-05-06 10:27 | 52.37137 | 13.52035 | 155 ft | 0 kts | 249° |